Terminal Aerodrome Forecast
Issued by NWS Topeka, KS

Home | Current Version | Previous Version | Text Only | Print | Product List | Glossary Off
Versions: 1 2 3 4 5 6 7 8 9 10 11 12 13 14 15 16 17 18 19 20 21 22

000
FTUS43 KTOP 020559 AAA
TAFTOP
TAF AMD
KTOP 020559Z 0206/0224 04008KT P6SM SCT015 SCT250
     FM021100 02006KT 4SM BR BKN015
     FM021700 03009KT P6SM VCTS FEW008 BKN020CB=

USA.gov is the U.S. government's official web portal to all federal, state and local government web resources and services.